sensor_id;sensor_type;location;lat;lon;timestamp;P1;durP1;ratioP1;P2;durP2;ratioP2
20970;SDS011;10644;48.834;10.088;2023-06-10T00:00:47;13.30;;;8.83;;
20970;SDS011;10644;48.834;10.088;2023-06-10T00:03:12;10.50;;;8.37;;
20970;SDS011;10644;48.834;10.088;2023-06-10T00:05:38;9.47;;;7.10;;
20970;SDS011;10644;48.834;10.088;2023-06-10T00:08:04;12.23;;;9.70;;
20970;SDS011;10644;48.834;10.088;2023-06-10T00:10:32;10.47;;;8.87;;
20970;SDS011;10644;48.834;10.088;2023-06-10T00:12:58;8.80;;;7.03;;
20970;SDS011;10644;48.834;10.088;2023-06-10T00:15:23;9.07;;;7.30;;
20970;SDS011;10644;48.834;10.088;2023-06-10T00:17:49;12.80;;;8.47;;
20970;SDS011;10644;48.834;10.088;2023-06-10T00:20:17;10.43;;;8.23;;
20970;SDS011;10644;48.834;10.088;2023-06-10T00:22:43;12.00;;;8.33;;
20970;SDS011;10644;48.834;10.088;2023-06-10T00:25:10;9.77;;;7.50;;
20970;SDS011;10644;48.834;10.088;2023-06-10T00:27:36;12.33;;;6.70;;
20970;SDS011;10644;48.834;10.088;2023-06-10T00:30:04;6.00;;;5.13;;
20970;SDS011;10644;48.834;10.088;2023-06-10T00:32:32;8.93;;;6.43;;
20970;SDS011;10644;48.834;10.088;2023-06-10T00:34:57;10.10;;;7.07;;
20970;SDS011;10644;48.834;10.088;2023-06-10T00:37:23;9.97;;;6.73;;
20970;SDS011;10644;48.834;10.088;2023-06-10T00:39:50;12.30;;;6.97;;
20970;SDS011;10644;48.834;10.088;2023-06-10T00:42:16;10.87;;;6.90;;
20970;SDS011;10644;48.834;10.088;2023-06-10T00:44:41;9.23;;;6.90;;
20970;SDS011;10644;48.834;10.088;2023-06-10T00:47:09;12.67;;;6.40;;
20970;SDS011;10644;48.834;10.088;2023-06-10T00:49:35;11.57;;;6.67;;
20970;SDS011;10644;48.834;10.088;2023-06-10T00:52:01;10.43;;;6.60;;
20970;SDS011;10644;48.834;10.088;2023-06-10T00:54:29;7.63;;;6.43;;
20970;SDS011;10644;48.834;10.088;2023-06-10T00:57:00;13.43;;;6.67;;
20970;SDS011;10644;48.834;10.088;2023-06-10T00:59:26;8.10;;;5.73;;
20970;SDS011;10644;48.834;10.088;2023-06-10T01:01:53;7.77;;;6.90;;
20970;SDS011;10644;48.834;10.088;2023-06-10T01:04:18;9.23;;;6.63;;
20970;SDS011;10644;48.834;10.088;2023-06-10T01:09:23;13.50;;;7.33;;
20970;SDS011;10644;48.834;10.088;2023-06-10T01:11:58;8.60;;;6.70;;
20970;SDS011;10644;48.834;10.088;2023-06-10T01:14:52;10.40;;;7.10;;
20970;SDS011;10644;48.834;10.088;2023-06-10T01:17:17;14.03;;;7.60;;
20970;SDS011;10644;48.834;10.088;2023-06-10T01:19:43;16.37;;;8.97;;
20970;SDS011;10644;48.834;10.088;2023-06-10T01:22:09;13.03;;;8.00;;
20970;SDS011;10644;48.834;10.088;2023-06-10T01:24:35;12.03;;;8.00;;
20970;SDS011;10644;48.834;10.088;2023-06-10T01:27:03;15.43;;;8.13;;
20970;SDS011;10644;48.834;10.088;2023-06-10T01:29:36;13.90;;;8.13;;
20970;SDS011;10644;48.834;10.088;2023-06-10T01:32:06;16.50;;;8.50;;
20970;SDS011;10644;48.834;10.088;2023-06-10T01:34:36;10.20;;;7.83;;
20970;SDS011;10644;48.834;10.088;2023-06-10T01:37:04;11.00;;;8.10;;
20970;SDS011;10644;48.834;10.088;2023-06-10T01:39:29;13.60;;;8.37;;
20970;SDS011;10644;48.834;10.088;2023-06-10T01:41:57;11.70;;;8.30;;
20970;SDS011;10644;48.834;10.088;2023-06-10T01:44:23;12.83;;;8.90;;
20970;SDS011;10644;48.834;10.088;2023-06-10T01:46:48;15.47;;;7.70;;
20970;SDS011;10644;48.834;10.088;2023-06-10T01:49:14;13.70;;;8.20;;
20970;SDS011;10644;48.834;10.088;2023-06-10T01:51:40;15.63;;;8.17;;
20970;SDS011;10644;48.834;10.088;2023-06-10T01:54:06;9.90;;;7.83;;
20970;SDS011;10644;48.834;10.088;2023-06-10T01:56:31;10.40;;;7.80;;
20970;SDS011;10644;48.834;10.088;2023-06-10T01:58:57;10.50;;;6.50;;
20970;SDS011;10644;48.834;10.088;2023-06-10T02:01:26;11.63;;;7.73;;
20970;SDS011;10644;48.834;10.088;2023-06-10T02:03:57;12.53;;;7.43;;
20970;SDS011;10644;48.834;10.088;2023-06-10T02:06:25;13.27;;;7.90;;
20970;SDS011;10644;48.834;10.088;2023-06-10T02:08:52;13.50;;;8.50;;
20970;SDS011;10644;48.834;10.088;2023-06-10T02:11:17;11.73;;;8.30;;
20970;SDS011;10644;48.834;10.088;2023-06-10T02:13:45;11.70;;;8.23;;
20970;SDS011;10644;48.834;10.088;2023-06-10T02:16:10;12.67;;;8.53;;
20970;SDS011;10644;48.834;10.088;2023-06-10T02:18:37;18.60;;;8.57;;
20970;SDS011;10644;48.834;10.088;2023-06-10T02:21:08;12.10;;;7.97;;
20970;SDS011;10644;48.834;10.088;2023-06-10T02:23:33;10.60;;;7.70;;
20970;SDS011;10644;48.834;10.088;2023-06-10T02:25:58;11.70;;;7.73;;
20970;SDS011;10644;48.834;10.088;2023-06-10T02:28:24;13.10;;;8.53;;
20970;SDS011;10644;48.834;10.088;2023-06-10T02:30:52;14.00;;;7.97;;
20970;SDS011;10644;48.834;10.088;2023-06-10T02:33:17;10.83;;;7.90;;
20970;SDS011;10644;48.834;10.088;2023-06-10T02:35:45;16.97;;;9.40;;
20970;SDS011;10644;48.834;10.088;2023-06-10T02:38:11;12.30;;;8.80;;
20970;SDS011;10644;48.834;10.088;2023-06-10T02:40:36;20.00;;;8.70;;
20970;SDS011;10644;48.834;10.088;2023-06-10T02:43:01;13.50;;;8.43;;
20970;SDS011;10644;48.834;10.088;2023-06-10T02:45:29;13.63;;;8.67;;
20970;SDS011;10644;48.834;10.088;2023-06-10T02:47:55;13.47;;;9.73;;
20970;SDS011;10644;48.834;10.088;2023-06-10T02:50:20;11.67;;;7.53;;
20970;SDS011;10644;48.834;10.088;2023-06-10T02:52:46;12.30;;;8.07;;
20970;SDS011;10644;48.834;10.088;2023-06-10T02:55:13;13.80;;;8.50;;
20970;SDS011;10644;48.834;10.088;2023-06-10T02:57:39;13.10;;;8.40;;
20970;SDS011;10644;48.834;10.088;2023-06-10T03:00:05;12.50;;;8.57;;
20970;SDS011;10644;48.834;10.088;2023-06-10T03:02:34;12.27;;;7.77;;
20970;SDS011;10644;48.834;10.088;2023-06-10T03:05:02;14.50;;;8.03;;
20970;SDS011;10644;48.834;10.088;2023-06-10T03:07:28;12.90;;;7.90;;
20970;SDS011;10644;48.834;10.088;2023-06-10T03:09:53;16.73;;;8.17;;
20970;SDS011;10644;48.834;10.088;2023-06-10T03:12:21;13.70;;;8.50;;
20970;SDS011;10644;48.834;10.088;2023-06-10T03:14:49;13.83;;;7.87;;
20970;SDS011;10644;48.834;10.088;2023-06-10T03:17:15;14.03;;;9.33;;
20970;SDS011;10644;48.834;10.088;2023-06-10T03:19:40;10.50;;;8.13;;
20970;SDS011;10644;48.834;10.088;2023-06-10T03:22:09;13.67;;;8.67;;
20970;SDS011;10644;48.834;10.088;2023-06-10T03:24:36;23.73;;;9.63;;
20970;SDS011;10644;48.834;10.088;2023-06-10T03:27:08;34.57;;;10.70;;
20970;SDS011;10644;48.834;10.088;2023-06-10T03:29:40;27.30;;;10.23;;
20970;SDS011;10644;48.834;10.088;2023-06-10T03:32:08;33.33;;;10.87;;
20970;SDS011;10644;48.834;10.088;2023-06-10T03:34:33;20.50;;;9.77;;
20970;SDS011;10644;48.834;10.088;2023-06-10T03:36:59;26.17;;;10.07;;
20970;SDS011;10644;48.834;10.088;2023-06-10T03:39:25;27.03;;;10.97;;
20970;SDS011;10644;48.834;10.088;2023-06-10T03:41:54;23.60;;;9.67;;
20970;SDS011;10644;48.834;10.088;2023-06-10T03:44:22;26.90;;;10.83;;
20970;SDS011;10644;48.834;10.088;2023-06-10T03:46:47;28.23;;;10.80;;
20970;SDS011;10644;48.834;10.088;2023-06-10T03:49:13;25.33;;;10.00;;
20970;SDS011;10644;48.834;10.088;2023-06-10T03:51:40;23.80;;;10.57;;
20970;SDS011;10644;48.834;10.088;2023-06-10T03:54:05;35.97;;;11.03;;
20970;SDS011;10644;48.834;10.088;2023-06-10T03:56:31;22.73;;;9.93;;
20970;SDS011;10644;48.834;10.088;2023-06-10T03:58:56;23.37;;;9.90;;
20970;SDS011;10644;48.834;10.088;2023-06-10T04:01:22;30.00;;;11.43;;
20970;SDS011;10644;48.834;10.088;2023-06-10T04:03:48;26.80;;;9.70;;
20970;SDS011;10644;48.834;10.088;2023-06-10T04:06:16;22.37;;;10.50;;
20970;SDS011;10644;48.834;10.088;2023-06-10T04:08:43;28.73;;;10.70;;
20970;SDS011;10644;48.834;10.088;2023-06-10T04:11:09;26.93;;;10.40;;
20970;SDS011;10644;48.834;10.088;2023-06-10T04:13:35;26.43;;;10.43;;
20970;SDS011;10644;48.834;10.088;2023-06-10T04:16:01;25.27;;;10.43;;
20970;SDS011;10644;48.834;10.088;2023-06-10T04:18:27;27.70;;;10.57;;
20970;SDS011;10644;48.834;10.088;2023-06-10T04:20:53;26.23;;;11.63;;
20970;SDS011;10644;48.834;10.088;2023-06-10T04:23:21;20.57;;;10.20;;
20970;SDS011;10644;48.834;10.088;2023-06-10T04:25:47;23.80;;;10.40;;
20970;SDS011;10644;48.834;10.088;2023-06-10T04:28:12;24.77;;;10.17;;
20970;SDS011;10644;48.834;10.088;2023-06-10T04:30:38;24.70;;;10.50;;
20970;SDS011;10644;48.834;10.088;2023-06-10T04:33:03;25.93;;;9.97;;
20970;SDS011;10644;48.834;10.088;2023-06-10T04:35:31;23.47;;;10.03;;
20970;SDS011;10644;48.834;10.088;2023-06-10T04:37:57;23.17;;;10.47;;
20970;SDS011;10644;48.834;10.088;2023-06-10T04:40:22;27.33;;;11.70;;
20970;SDS011;10644;48.834;10.088;2023-06-10T04:42:48;29.60;;;10.47;;
20970;SDS011;10644;48.834;10.088;2023-06-10T04:45:15;26.53;;;11.10;;
20970;SDS011;10644;48.834;10.088;2023-06-10T04:47:43;27.70;;;10.23;;
20970;SDS011;10644;48.834;10.088;2023-06-10T04:50:11;28.77;;;10.27;;
20970;SDS011;10644;48.834;10.088;2023-06-10T04:52:37;30.73;;;10.43;;
20970;SDS011;10644;48.834;10.088;2023-06-10T04:55:06;24.73;;;10.33;;
20970;SDS011;10644;48.834;10.088;2023-06-10T04:57:32;29.93;;;10.23;;
20970;SDS011;10644;48.834;10.088;2023-06-10T04:59:57;26.93;;;10.57;;
20970;SDS011;10644;48.834;10.088;2023-06-10T05:02:23;23.07;;;9.30;;
20970;SDS011;10644;48.834;10.088;2023-06-10T05:04:48;28.70;;;10.87;;
20970;SDS011;10644;48.834;10.088;2023-06-10T05:07:16;23.57;;;9.83;;
20970;SDS011;10644;48.834;10.088;2023-06-10T05:09:41;27.73;;;10.90;;
20970;SDS011;10644;48.834;10.088;2023-06-10T05:12:06;32.67;;;10.93;;
20970;SDS011;10644;48.834;10.088;2023-06-10T05:14:32;23.10;;;10.13;;
20970;SDS011;10644;48.834;10.088;2023-06-10T05:16:57;23.43;;;9.93;;
20970;SDS011;10644;48.834;10.088;2023-06-10T05:19:23;32.57;;;11.80;;
20970;SDS011;10644;48.834;10.088;2023-06-10T05:21:48;24.87;;;11.17;;
20970;SDS011;10644;48.834;10.088;2023-06-10T05:24:14;17.43;;;9.03;;
20970;SDS011;10644;48.834;10.088;2023-06-10T05:26:39;30.57;;;10.23;;
20970;SDS011;10644;48.834;10.088;2023-06-10T05:29:06;22.53;;;9.07;;
20970;SDS011;10644;48.834;10.088;2023-06-10T05:31:31;27.20;;;10.13;;
20970;SDS011;10644;48.834;10.088;2023-06-10T05:33:57;24.87;;;10.00;;
20970;SDS011;10644;48.834;10.088;2023-06-10T05:36:23;20.93;;;9.17;;
20970;SDS011;10644;48.834;10.088;2023-06-10T05:38:51;21.70;;;9.53;;
20970;SDS011;10644;48.834;10.088;2023-06-10T05:41:17;22.80;;;9.67;;
20970;SDS011;10644;48.834;10.088;2023-06-10T05:43:42;18.53;;;9.50;;
20970;SDS011;10644;48.834;10.088;2023-06-10T05:46:07;22.90;;;10.27;;
20970;SDS011;10644;48.834;10.088;2023-06-10T05:48:33;25.77;;;9.90;;
20970;SDS011;10644;48.834;10.088;2023-06-10T05:50:58;24.27;;;9.30;;
20970;SDS011;10644;48.834;10.088;2023-06-10T05:53:24;24.00;;;9.50;;
20970;SDS011;10644;48.834;10.088;2023-06-10T05:55:49;27.17;;;11.00;;
20970;SDS011;10644;48.834;10.088;2023-06-10T05:58:15;25.60;;;10.20;;
20970;SDS011;10644;48.834;10.088;2023-06-10T06:00:40;23.03;;;9.37;;
20970;SDS011;10644;48.834;10.088;2023-06-10T06:03:09;26.63;;;10.77;;
20970;SDS011;10644;48.834;10.088;2023-06-10T06:05:35;26.57;;;10.17;;
20970;SDS011;10644;48.834;10.088;2023-06-10T06:08:03;26.37;;;9.53;;
20970;SDS011;10644;48.834;10.088;2023-06-10T06:10:31;22.03;;;9.13;;
20970;SDS011;10644;48.834;10.088;2023-06-10T06:12:56;24.73;;;9.13;;
20970;SDS011;10644;48.834;10.088;2023-06-10T06:15:22;20.93;;;10.03;;
20970;SDS011;10644;48.834;10.088;2023-06-10T06:17:47;34.90;;;12.10;;
20970;SDS011;10644;48.834;10.088;2023-06-10T06:20:13;18.33;;;9.33;;
20970;SDS011;10644;48.834;10.088;2023-06-10T06:22:38;26.40;;;9.90;;
20970;SDS011;10644;48.834;10.088;2023-06-10T06:25:04;20.73;;;9.50;;
20970;SDS011;10644;48.834;10.088;2023-06-10T06:27:30;21.57;;;9.00;;
20970;SDS011;10644;48.834;10.088;2023-06-10T06:29:56;22.00;;;9.23;;
20970;SDS011;10644;48.834;10.088;2023-06-10T06:32:21;23.73;;;9.90;;
20970;SDS011;10644;48.834;10.088;2023-06-10T06:34:47;23.93;;;9.40;;
20970;SDS011;10644;48.834;10.088;2023-06-10T06:37:19;40.13;;;11.43;;
20970;SDS011;10644;48.834;10.088;2023-06-10T06:39:50;22.33;;;9.60;;
20970;SDS011;10644;48.834;10.088;2023-06-10T06:42:19;23.67;;;9.83;;
20970;SDS011;10644;48.834;10.088;2023-06-10T06:44:46;24.67;;;9.37;;
20970;SDS011;10644;48.834;10.088;2023-06-10T06:47:11;30.17;;;10.00;;
20970;SDS011;10644;48.834;10.088;2023-06-10T06:49:37;24.40;;;9.40;;
20970;SDS011;10644;48.834;10.088;2023-06-10T06:52:03;27.07;;;9.27;;
20970;SDS011;10644;48.834;10.088;2023-06-10T06:54:28;23.47;;;9.33;;
20970;SDS011;10644;48.834;10.088;2023-06-10T06:56:54;21.93;;;8.63;;
20970;SDS011;10644;48.834;10.088;2023-06-10T06:59:19;20.23;;;8.17;;
20970;SDS011;10644;48.834;10.088;2023-06-10T07:01:46;22.93;;;8.40;;
20970;SDS011;10644;48.834;10.088;2023-06-10T07:04:12;30.50;;;8.63;;
20970;SDS011;10644;48.834;10.088;2023-06-10T07:06:39;17.80;;;8.20;;
20970;SDS011;10644;48.834;10.088;2023-06-10T07:09:04;27.43;;;9.33;;
20970;SDS011;10644;48.834;10.088;2023-06-10T07:11:30;18.97;;;8.10;;
20970;SDS011;10644;48.834;10.088;2023-06-10T07:13:55;20.97;;;8.37;;
20970;SDS011;10644;48.834;10.088;2023-06-10T07:16:21;25.27;;;8.30;;
20970;SDS011;10644;48.834;10.088;2023-06-10T07:18:46;23.37;;;8.30;;
20970;SDS011;10644;48.834;10.088;2023-06-10T07:21:12;24.90;;;9.53;;
20970;SDS011;10644;48.834;10.088;2023-06-10T07:23:42;26.13;;;8.97;;
20970;SDS011;10644;48.834;10.088;2023-06-10T07:26:08;15.30;;;7.03;;
20970;SDS011;10644;48.834;10.088;2023-06-10T07:28:36;20.70;;;8.00;;
20970;SDS011;10644;48.834;10.088;2023-06-10T07:31:02;18.93;;;8.20;;
20970;SDS011;10644;48.834;10.088;2023-06-10T07:33:28;25.37;;;8.50;;
20970;SDS011;10644;48.834;10.088;2023-06-10T07:35:53;19.50;;;7.90;;
20970;SDS011;10644;48.834;10.088;2023-06-10T07:38:19;24.77;;;8.27;;
20970;SDS011;10644;48.834;10.088;2023-06-10T07:40:45;22.60;;;8.03;;
20970;SDS011;10644;48.834;10.088;2023-06-10T07:43:13;33.30;;;9.57;;
20970;SDS011;10644;48.834;10.088;2023-06-10T07:45:54;25.90;;;8.87;;
20970;SDS011;10644;48.834;10.088;2023-06-10T07:48:22;17.33;;;7.23;;
20970;SDS011;10644;48.834;10.088;2023-06-10T07:50:47;19.87;;;8.00;;
20970;SDS011;10644;48.834;10.088;2023-06-10T07:53:13;19.63;;;8.00;;
20970;SDS011;10644;48.834;10.088;2023-06-10T07:55:38;21.33;;;8.70;;
20970;SDS011;10644;48.834;10.088;2023-06-10T07:58:03;23.67;;;8.40;;
20970;SDS011;10644;48.834;10.088;2023-06-10T08:00:29;18.50;;;7.60;;
20970;SDS011;10644;48.834;10.088;2023-06-10T08:02:54;18.43;;;7.60;;
20970;SDS011;10644;48.834;10.088;2023-06-10T08:05:20;25.60;;;8.47;;
20970;SDS011;10644;48.834;10.088;2023-06-10T08:07:46;17.37;;;8.23;;
20970;SDS011;10644;48.834;10.088;2023-06-10T08:10:11;28.83;;;8.30;;
20970;SDS011;10644;48.834;10.088;2023-06-10T08:12:36;23.83;;;8.70;;
20970;SDS011;10644;48.834;10.088;2023-06-10T08:15:02;28.57;;;9.63;;
20970;SDS011;10644;48.834;10.088;2023-06-10T08:17:29;21.50;;;8.93;;
20970;SDS011;10644;48.834;10.088;2023-06-10T08:19:55;12.93;;;7.63;;
20970;SDS011;10644;48.834;10.088;2023-06-10T08:22:20;20.37;;;8.90;;
20970;SDS011;10644;48.834;10.088;2023-06-10T08:24:46;18.43;;;8.47;;
20970;SDS011;10644;48.834;10.088;2023-06-10T08:27:11;25.17;;;8.37;;
20970;SDS011;10644;48.834;10.088;2023-06-10T08:29:36;20.80;;;8.47;;
20970;SDS011;10644;48.834;10.088;2023-06-10T08:32:02;15.10;;;7.80;;
20970;SDS011;10644;48.834;10.088;2023-06-10T08:34:28;18.87;;;9.10;;
20970;SDS011;10644;48.834;10.088;2023-06-10T08:36:53;23.73;;;9.40;;
20970;SDS011;10644;48.834;10.088;2023-06-10T08:39:20;25.60;;;9.20;;
20970;SDS011;10644;48.834;10.088;2023-06-10T08:41:57;42.43;;;9.50;;
20970;SDS011;10644;48.834;10.088;2023-06-10T08:44:36;28.70;;;8.53;;
20970;SDS011;10644;48.834;10.088;2023-06-10T08:47:06;22.23;;;9.37;;
20970;SDS011;10644;48.834;10.088;2023-06-10T08:49:38;30.00;;;10.10;;
20970;SDS011;10644;48.834;10.088;2023-06-10T08:52:06;20.20;;;9.03;;
20970;SDS011;10644;48.834;10.088;2023-06-10T08:54:33;19.67;;;9.13;;
20970;SDS011;10644;48.834;10.088;2023-06-10T08:57:03;18.20;;;8.13;;
20970;SDS011;10644;48.834;10.088;2023-06-10T08:59:31;34.33;;;10.80;;
20970;SDS011;10644;48.834;10.088;2023-06-10T09:01:56;29.83;;;9.47;;
20970;SDS011;10644;48.834;10.088;2023-06-10T09:04:23;16.80;;;8.47;;
20970;SDS011;10644;48.834;10.088;2023-06-10T09:06:49;22.83;;;8.03;;
20970;SDS011;10644;48.834;10.088;2023-06-10T09:09:17;19.20;;;9.00;;
20970;SDS011;10644;48.834;10.088;2023-06-10T09:11:44;33.60;;;9.77;;
20970;SDS011;10644;48.834;10.088;2023-06-10T09:14:10;25.60;;;8.33;;
20970;SDS011;10644;48.834;10.088;2023-06-10T09:16:37;17.30;;;8.83;;
20970;SDS011;10644;48.834;10.088;2023-06-10T09:19:03;15.70;;;7.80;;
20970;SDS011;10644;48.834;10.088;2023-06-10T09:21:33;20.30;;;8.90;;
20970;SDS011;10644;48.834;10.088;2023-06-10T09:24:01;18.33;;;9.40;;
20970;SDS011;10644;48.834;10.088;2023-06-10T09:26:30;14.27;;;7.87;;
20970;SDS011;10644;48.834;10.088;2023-06-10T09:29:05;17.43;;;8.20;;
20970;SDS011;10644;48.834;10.088;2023-06-10T09:31:31;19.40;;;9.17;;
20970;SDS011;10644;48.834;10.088;2023-06-10T09:36:32;21.77;;;9.70;;
20970;SDS011;10644;48.834;10.088;2023-06-10T09:38:58;16.83;;;8.80;;
20970;SDS011;10644;48.834;10.088;2023-06-10T09:41:39;15.83;;;8.40;;
20970;SDS011;10644;48.834;10.088;2023-06-10T09:44:18;16.10;;;8.60;;
20970;SDS011;10644;48.834;10.088;2023-06-10T09:46:45;14.57;;;7.60;;
20970;SDS011;10644;48.834;10.088;2023-06-10T09:49:12;22.53;;;9.53;;
20970;SDS011;10644;48.834;10.088;2023-06-10T09:51:47;14.63;;;7.87;;
20970;SDS011;10644;48.834;10.088;2023-06-10T09:54:17;13.50;;;8.07;;
20970;SDS011;10644;48.834;10.088;2023-06-10T09:56:43;21.00;;;8.10;;
20970;SDS011;10644;48.834;10.088;2023-06-10T09:59:14;14.57;;;7.57;;
20970;SDS011;10644;48.834;10.088;2023-06-10T10:01:43;22.30;;;9.10;;
20970;SDS011;10644;48.834;10.088;2023-06-10T10:04:10;10.70;;;6.53;;
20970;SDS011;10644;48.834;10.088;2023-06-10T10:06:36;23.50;;;8.70;;
20970;SDS011;10644;48.834;10.088;2023-06-10T10:09:02;17.20;;;8.37;;
20970;SDS011;10644;48.834;10.088;2023-06-10T10:11:28;19.03;;;7.73;;
20970;SDS011;10644;48.834;10.088;2023-06-10T10:13:56;16.03;;;7.20;;
20970;SDS011;10644;48.834;10.088;2023-06-10T10:16:40;15.87;;;7.20;;
20970;SDS011;10644;48.834;10.088;2023-06-10T10:19:20;31.60;;;8.00;;
20970;SDS011;10644;48.834;10.088;2023-06-10T10:21:53;11.70;;;6.70;;
20970;SDS011;10644;48.834;10.088;2023-06-10T10:24:23;10.00;;;6.70;;
20970;SDS011;10644;48.834;10.088;2023-06-10T10:26:58;11.40;;;6.90;;
20970;SDS011;10644;48.834;10.088;2023-06-10T10:29:30;16.10;;;8.07;;
20970;SDS011;10644;48.834;10.088;2023-06-10T10:31:59;12.27;;;7.17;;
20970;SDS011;10644;48.834;10.088;2023-06-10T10:37:18;14.10;;;7.37;;
20970;SDS011;10644;48.834;10.088;2023-06-10T10:39:44;16.17;;;7.27;;
20970;SDS011;10644;48.834;10.088;2023-06-10T10:42:12;17.53;;;7.77;;
20970;SDS011;10644;48.834;10.088;2023-06-10T10:44:40;14.20;;;7.10;;
20970;SDS011;10644;48.834;10.088;2023-06-10T10:47:07;20.37;;;8.00;;
20970;SDS011;10644;48.834;10.088;2023-06-10T10:49:34;17.13;;;8.47;;
20970;SDS011;10644;48.834;10.088;2023-06-10T10:52:00;18.30;;;7.97;;
20970;SDS011;10644;48.834;10.088;2023-06-10T10:54:31;13.40;;;7.80;;
20970;SDS011;10644;48.834;10.088;2023-06-10T10:59:55;15.50;;;6.97;;
20970;SDS011;10644;48.834;10.088;2023-06-10T11:05:07;15.67;;;7.27;;
20970;SDS011;10644;48.834;10.088;2023-06-10T11:07:34;11.37;;;7.37;;
20970;SDS011;10644;48.834;10.088;2023-06-10T11:10:13;20.40;;;7.70;;
20970;SDS011;10644;48.834;10.088;2023-06-10T11:12:49;14.23;;;7.07;;
20970;SDS011;10644;48.834;10.088;2023-06-10T11:15:19;35.10;;;8.63;;
20970;SDS011;10644;48.834;10.088;2023-06-10T11:26:36;15.77;;;7.57;;
20970;SDS011;10644;48.834;10.088;2023-06-10T11:31:20;18.40;;;7.50;;
20970;SDS011;10644;48.834;10.088;2023-06-10T11:33:47;29.30;;;8.33;;
20970;SDS011;10644;48.834;10.088;2023-06-10T11:36:17;16.77;;;7.17;;
20970;SDS011;10644;48.834;10.088;2023-06-10T11:38:44;11.60;;;6.20;;
20970;SDS011;10644;48.834;10.088;2023-06-10T11:41:16;13.30;;;6.53;;
20970;SDS011;10644;48.834;10.088;2023-06-10T11:43:45;15.97;;;7.57;;
20970;SDS011;10644;48.834;10.088;2023-06-10T11:46:12;14.80;;;7.10;;
20970;SDS011;10644;48.834;10.088;2023-06-10T11:48:54;10.00;;;6.17;;
20970;SDS011;10644;48.834;10.088;2023-06-10T11:51:21;14.80;;;5.70;;
20970;SDS011;10644;48.834;10.088;2023-06-10T11:53:49;13.83;;;6.60;;
20970;SDS011;10644;48.834;10.088;2023-06-10T11:56:25;17.97;;;6.20;;
20970;SDS011;10644;48.834;10.088;2023-06-10T11:59:09;25.00;;;7.57;;
20970;SDS011;10644;48.834;10.088;2023-06-10T12:01:41;18.53;;;7.03;;
20970;SDS011;10644;48.834;10.088;2023-06-10T12:04:09;16.43;;;6.80;;
20970;SDS011;10644;48.834;10.088;2023-06-10T12:09:04;11.60;;;6.13;;
20970;SDS011;10644;48.834;10.088;2023-06-10T12:11:30;11.17;;;5.77;;
20970;SDS011;10644;48.834;10.088;2023-06-10T12:13:56;19.03;;;7.63;;
20970;SDS011;10644;48.834;10.088;2023-06-10T12:16:21;19.23;;;6.50;;
20970;SDS011;10644;48.834;10.088;2023-06-10T12:18:47;11.70;;;6.10;;
20970;SDS011;10644;48.834;10.088;2023-06-10T12:21:20;13.63;;;6.20;;
20970;SDS011;10644;48.834;10.088;2023-06-10T12:26:36;13.30;;;6.90;;
20970;SDS011;10644;48.834;10.088;2023-06-10T12:31:58;17.30;;;7.07;;
20970;SDS011;10644;48.834;10.088;2023-06-10T12:34:29;18.23;;;6.60;;
20970;SDS011;10644;48.834;10.088;2023-06-10T12:36:54;20.90;;;7.17;;
20970;SDS011;10644;48.834;10.088;2023-06-10T12:39:22;10.97;;;6.00;;
20970;SDS011;10644;48.834;10.088;2023-06-10T12:41:48;10.93;;;5.50;;
20970;SDS011;10644;48.834;10.088;2023-06-10T12:44:14;15.57;;;6.57;;
20970;SDS011;10644;48.834;10.088;2023-06-10T12:46:42;14.73;;;5.97;;
20970;SDS011;10644;48.834;10.088;2023-06-10T12:49:08;11.37;;;5.60;;
20970;SDS011;10644;48.834;10.088;2023-06-10T12:51:33;11.67;;;6.00;;
20970;SDS011;10644;48.834;10.088;2023-06-10T12:54:00;11.90;;;6.23;;
20970;SDS011;10644;48.834;10.088;2023-06-10T12:56:25;18.33;;;6.50;;
20970;SDS011;10644;48.834;10.088;2023-06-10T12:58:51;16.30;;;6.50;;
20970;SDS011;10644;48.834;10.088;2023-06-10T13:01:16;20.00;;;7.03;;
20970;SDS011;10644;48.834;10.088;2023-06-10T13:03:44;15.80;;;6.10;;
20970;SDS011;10644;48.834;10.088;2023-06-10T13:06:12;20.83;;;7.13;;
20970;SDS011;10644;48.834;10.088;2023-06-10T13:08:38;17.27;;;6.60;;
20970;SDS011;10644;48.834;10.088;2023-06-10T13:11:06;11.30;;;5.80;;
20970;SDS011;10644;48.834;10.088;2023-06-10T13:13:32;14.53;;;5.77;;
20970;SDS011;10644;48.834;10.088;2023-06-10T13:15:59;16.67;;;6.13;;
20970;SDS011;10644;48.834;10.088;2023-06-10T13:18:26;15.87;;;6.80;;
20970;SDS011;10644;48.834;10.088;2023-06-10T13:20:53;12.37;;;6.50;;
20970;SDS011;10644;48.834;10.088;2023-06-10T13:23:19;16.47;;;7.23;;
20970;SDS011;10644;48.834;10.088;2023-06-10T13:25:44;17.03;;;7.20;;
20970;SDS011;10644;48.834;10.088;2023-06-10T13:28:10;18.50;;;6.10;;
20970;SDS011;10644;48.834;10.088;2023-06-10T13:30:36;15.00;;;6.40;;
20970;SDS011;10644;48.834;10.088;2023-06-10T13:33:02;12.30;;;5.93;;
20970;SDS011;10644;48.834;10.088;2023-06-10T13:35:30;12.37;;;6.57;;
20970;SDS011;10644;48.834;10.088;2023-06-10T13:37:55;18.67;;;6.50;;
20970;SDS011;10644;48.834;10.088;2023-06-10T13:40:23;12.80;;;6.73;;
20970;SDS011;10644;48.834;10.088;2023-06-10T13:42:48;12.23;;;5.93;;
20970;SDS011;10644;48.834;10.088;2023-06-10T13:45:15;12.90;;;6.70;;
20970;SDS011;10644;48.834;10.088;2023-06-10T13:47:43;15.37;;;6.77;;
20970;SDS011;10644;48.834;10.088;2023-06-10T13:50:08;18.77;;;7.43;;
20970;SDS011;10644;48.834;10.088;2023-06-10T13:52:34;14.63;;;6.90;;
20970;SDS011;10644;48.834;10.088;2023-06-10T13:55:02;16.07;;;8.40;;
20970;SDS011;10644;48.834;10.088;2023-06-10T13:57:27;17.43;;;7.30;;
20970;SDS011;10644;48.834;10.088;2023-06-10T13:59:52;13.73;;;6.60;;
20970;SDS011;10644;48.834;10.088;2023-06-10T14:02:18;12.13;;;7.40;;
20970;SDS011;10644;48.834;10.088;2023-06-10T14:04:43;14.03;;;6.87;;
20970;SDS011;10644;48.834;10.088;2023-06-10T14:07:11;14.90;;;6.70;;
20970;SDS011;10644;48.834;10.088;2023-06-10T14:09:37;17.47;;;6.40;;
20970;SDS011;10644;48.834;10.088;2023-06-10T14:12:02;14.40;;;7.00;;
20970;SDS011;10644;48.834;10.088;2023-06-10T14:14:28;14.47;;;6.93;;
20970;SDS011;10644;48.834;10.088;2023-06-10T14:16:53;13.67;;;6.77;;
20970;SDS011;10644;48.834;10.088;2023-06-10T14:19:21;14.23;;;6.83;;
20970;SDS011;10644;48.834;10.088;2023-06-10T14:21:47;16.00;;;7.80;;
20970;SDS011;10644;48.834;10.088;2023-06-10T14:24:14;15.63;;;7.40;;
20970;SDS011;10644;48.834;10.088;2023-06-10T14:26:39;19.90;;;6.97;;
20970;SDS011;10644;48.834;10.088;2023-06-10T14:29:05;19.90;;;7.00;;
20970;SDS011;10644;48.834;10.088;2023-06-10T14:31:30;13.20;;;7.00;;
20970;SDS011;10644;48.834;10.088;2023-06-10T14:33:58;18.43;;;7.50;;
20970;SDS011;10644;48.834;10.088;2023-06-10T14:36:23;19.13;;;7.63;;
20970;SDS011;10644;48.834;10.088;2023-06-10T14:38:48;24.00;;;7.80;;
20970;SDS011;10644;48.834;10.088;2023-06-10T14:41:14;17.10;;;6.80;;
20970;SDS011;10644;48.834;10.088;2023-06-10T14:43:40;16.90;;;6.97;;
20970;SDS011;10644;48.834;10.088;2023-06-10T14:46:05;16.63;;;8.00;;
20970;SDS011;10644;48.834;10.088;2023-06-10T14:48:31;12.03;;;6.03;;
20970;SDS011;10644;48.834;10.088;2023-06-10T14:50:56;14.33;;;6.93;;
20970;SDS011;10644;48.834;10.088;2023-06-10T14:53:24;15.63;;;7.27;;